Time;durP1;ratioP1;P1;durP2;ratioP2;P2;SDS_P1;SDS_P2;PMS_P1;PMS_P2;Temp;Humidity;BMP_temperature;BMP_pressure;BME280_temperature;BME280_humidity;BME280_pressure;Samples;Min_cycle;Max_cycle;Signal;HPM_P1;HPM_P2
2023/03/10 00:00:50;;;;;;;73.67;14.23;;;;;;;5.03;100.00;98643.06;5037056;22;20096;-87
2023/03/10 00:03:18;;;;;;;50.87;13.53;;;;;;;5.02;100.00;98641.50;5029158;28;20034;-87
2023/03/10 00:05:46;;;;;;;58.85;14.13;;;;;;;4.98;100.00;98647.34;5011086;28;20440;-87
2023/03/10 00:08:11;;;;;;;68.32;14.07;;;;;;;4.94;100.00;98642.84;5029756;28;20483;-87
2023/03/10 00:10:37;;;;;;;76.03;14.30;;;;;;;4.88;100.00;98626.19;5011814;28;20033;-87
2023/03/10 00:13:04;;;;;;;57.65;14.77;;;;;;;4.90;100.00;98634.66;5012126;28;20021;-87
2023/03/10 00:16:37;;;;;;;44.67;13.25;;;;;;;4.74;100.00;98623.31;5028999;28;20041;-87
2023/03/10 00:19:21;;;;;;;59.35;13.38;;;;;;;4.80;100.00;98630.19;4931063;28;20038;-87
2023/03/10 00:22:21;;;;;;;51.80;14.13;;;;;;;4.74;100.00;98619.88;4972818;28;20026;-87
2023/03/10 00:24:52;;;;;;;30.85;12.18;;;;;;;4.78;100.00;98642.13;4954134;28;20557;-87
2023/03/10 00:27:18;;;;;;;44.00;13.25;;;;;;;4.70;100.00;98625.72;4972148;28;20549;-87
2023/03/10 00:29:43;;;;;;;42.53;13.60;;;;;;;4.77;100.00;98624.63;5005947;28;20034;-86
2023/03/10 00:32:14;;;;;;;49.85;14.00;;;;;;;4.70;100.00;98623.06;5032649;28;20495;-87
2023/03/10 00:34:40;;;;;;;44.47;13.33;;;;;;;4.79;100.00;98638.41;5015763;28;20467;-87
2023/03/10 00:37:05;;;;;;;34.80;12.53;;;;;;;4.68;100.00;98627.06;5032315;28;20342;-87
2023/03/10 00:39:30;;;;;;;36.50;12.23;;;;;;;4.60;100.00;98617.81;5033086;28;20090;-87
2023/03/10 00:41:56;;;;;;;34.30;12.97;;;;;;;4.51;100.00;98622.09;5033518;28;20026;-87
2023/03/10 00:44:21;;;;;;;32.17;12.03;;;;;;;4.59;100.00;98636.66;5032559;28;20033;-87
2023/03/10 00:46:48;;;;;;;29.27;11.87;;;;;;;4.57;100.00;98621.00;5033412;28;20404;-87
2023/03/10 00:49:15;;;;;;;32.53;12.30;;;;;;;4.59;100.00;98634.78;5031904;28;20970;-87
2023/03/10 00:51:41;;;;;;;31.45;12.15;;;;;;;4.62;100.00;98642.19;5015733;28;20040;-87
2023/03/10 00:54:06;;;;;;;35.27;11.73;;;;;;;4.66;100.00;98645.09;5033078;28;20384;-86
2023/03/10 00:56:31;;;;;;;46.75;12.95;;;;;;;4.67;100.00;98636.88;5033210;28;20028;-86
2023/03/10 00:58:59;;;;;;;31.23;11.50;;;;;;;4.74;100.00;98646.41;5031505;28;20033;-87
2023/03/10 01:01:38;;;;;;;36.50;12.07;;;;;;;4.78;100.00;98642.13;5032213;28;20025;-87
2023/03/10 01:04:10;;;;;;;31.83;11.87;;;;;;;4.84;100.00;98647.13;5032140;28;20039;-87
2023/03/10 01:06:35;;;;;;;34.03;11.60;;;;;;;4.88;100.00;98644.75;5033086;28;20280;-87
2023/03/10 01:09:01;;;;;;;43.97;12.18;;;;;;;4.90;100.00;98637.31;5032812;28;20067;-87
2023/03/10 01:11:28;;;;;;;38.80;12.20;;;;;;;5.04;100.00;98647.31;5033531;28;20096;-87
2023/03/10 01:13:59;;;;;;;38.95;11.73;;;;;;;5.10;100.00;98641.69;5032936;28;20025;-87
2023/03/10 01:16:25;;;;;;;32.63;11.97;;;;;;;5.17;100.00;98638.75;5030790;28;20025;-87
2023/03/10 01:18:50;;;;;;;42.23;12.30;;;;;;;5.19;100.00;98622.53;5032916;28;20292;-87
2023/03/10 01:21:20;;;;;;;34.80;11.95;;;;;;;5.30;100.00;98627.50;5033165;28;20017;-87
2023/03/10 01:23:46;;;;;;;37.23;10.20;;;;;;;5.37;100.00;98623.75;5032979;28;20018;-87
2023/03/10 01:26:11;;;;;;;35.03;9.63;;;;;;;5.48;100.00;98619.13;5032140;28;20437;-87
2023/03/10 01:28:36;;;;;;;30.17;9.93;;;;;;;5.57;100.00;98617.47;5032408;28;20056;-88
2023/03/10 01:31:04;;;;;;;34.67;9.80;;;;;;;5.67;100.00;98611.25;5019975;28;20029;-87
2023/03/10 01:33:29;;;;;;;31.83;9.00;;;;;;;5.84;100.00;98608.19;5033111;28;20345;-87
2023/03/10 01:35:55;;;;;;;32.33;9.88;;;;;;;5.93;100.00;98611.03;5015200;28;20540;-87
2023/03/10 01:38:20;;;;;;;34.67;9.17;;;;;;;6.02;100.00;98612.06;5033310;28;20404;-88
2023/03/10 01:40:49;;;;;;;30.97;9.63;;;;;;;6.09;100.00;98614.38;5033081;28;20032;-87
2023/03/10 01:43:26;;;;;;;37.80;9.77;;;;;;;6.13;100.00;98607.41;5032451;28;20033;-87
2023/03/10 01:45:52;;;;;;;27.00;9.75;;;;;;;6.24;100.00;98602.75;5029426;28;20202;-87
2023/03/10 01:48:19;;;;;;;28.57;10.03;;;;;;;6.24;100.00;98611.56;5031365;28;20057;-87
2023/03/10 01:50:52;;;;;;;31.83;9.70;;;;;;;6.30;100.00;98605.09;5032537;28;20106;-87
2023/03/10 01:53:27;;;;;;;31.67;10.40;;;;;;;6.37;100.00;98599.44;5033859;28;20026;-87
2023/03/10 01:55:59;;;;;;;28.73;9.40;;;;;;;6.40;100.00;98592.75;5034694;28;20484;-87
2023/03/10 01:58:37;;;;;;;31.63;9.90;;;;;;;6.42;100.00;98587.94;5038907;28;20288;-86
2023/03/10 02:01:04;;;;;;;31.92;10.10;;;;;;;6.43;100.00;98598.28;5047928;28;20558;-86
2023/03/10 02:03:35;;;;;;;32.13;9.98;;;;;;;6.46;100.00;98591.63;5056905;28;20106;-88
2023/03/10 02:06:05;;;;;;;30.50;9.38;;;;;;;6.49;100.00;98591.84;5035256;28;20071;-87
2023/03/10 02:08:36;;;;;;;34.47;9.93;;;;;;;6.54;100.00;98595.53;5053934;28;20044;-88
2023/03/10 02:11:02;;;;;;;34.60;10.20;;;;;;;6.60;100.00;98595.16;5052558;28;20673;-87
2023/03/10 02:13:28;;;;;;;32.67;10.20;;;;;;;6.69;100.00;98600.63;5051898;28;20048;-87
2023/03/10 02:15:53;;;;;;;32.63;10.75;;;;;;;6.75;100.00;98599.50;5052297;28;20055;-87
2023/03/10 02:18:20;;;;;;;33.60;10.20;;;;;;;6.80;100.00;98601.31;5051570;28;20368;-88
2023/03/10 02:20:57;;;;;;;36.63;9.88;;;;;;;6.81;100.00;98593.00;5035097;28;20025;-87
2023/03/10 02:23:35;;;;;;;33.30;10.97;;;;;;;6.77;100.00;98580.56;5050649;28;20036;-87
2023/03/10 02:26:14;;;;;;;30.10;9.87;;;;;;;6.79;100.00;98579.19;5064136;28;20801;-87
2023/03/10 02:28:39;;;;;;;28.20;8.68;;;;;;;6.78;100.00;98571.50;5052152;28;20032;-86
2023/03/10 02:31:05;;;;;;;29.63;9.27;;;;;;;6.71;100.00;98566.53;5069417;28;20051;-87
2023/03/10 02:33:32;;;;;;;30.80;9.07;;;;;;;6.62;100.00;98566.41;5067981;28;20044;-87
2023/03/10 02:36:27;;;;;;;33.27;10.00;;;;;;;6.60;100.00;98555.25;5065879;28;20287;-88
2023/03/10 02:38:53;;;;;;;33.72;9.30;;;;;;;6.53;100.00;98554.78;5057818;28;20132;-87
2023/03/10 02:41:26;;;;;;;30.17;9.27;;;;;;;6.62;100.00;98569.06;5052563;28;20037;-87
2023/03/10 02:43:53;;;;;;;28.83;9.27;;;;;;;6.65;100.00;98551.72;5051143;28;20041;-87
2023/03/10 02:46:19;;;;;;;24.60;8.93;;;;;;;6.64;100.00;98547.47;5033826;28;20498;-87
2023/03/10 02:48:44;;;;;;;32.10;9.27;;;;;;;6.60;100.00;98549.94;5048488;28;20029;-87
2023/03/10 02:51:14;;;;;;;31.33;9.33;;;;;;;6.57;100.00;98553.16;5050073;28;20047;-87
2023/03/10 02:53:40;;;;;;;34.60;9.45;;;;;;;6.49;100.00;98541.28;5041226;28;20091;-87
2023/03/10 02:56:06;;;;;;;31.88;8.90;;;;;;;6.50;100.00;98537.56;5050117;28;20032;-88
2023/03/10 02:58:32;;;;;;;31.07;8.30;;;;;;;6.46;100.00;98535.75;5032823;28;20056;-88
2023/03/10 03:00:57;;;;;;;29.65;8.77;;;;;;;6.44;100.00;98538.69;5050806;28;20115;-87
2023/03/10 03:03:23;;;;;;;26.63;8.47;;;;;;;6.51;100.00;98533.00;5051685;28;20020;-88
2023/03/10 03:05:49;;;;;;;36.08;9.85;;;;;;;6.48;100.00;98537.03;5050017;28;20025;-87
2023/03/10 03:08:16;;;;;;;32.47;9.93;;;;;;;6.40;100.00;98523.59;5029690;28;20043;-87
2023/03/10 03:10:45;;;;;;;33.90;9.83;;;;;;;6.38;100.00;98529.19;5051026;28;20025;-87
2023/03/10 03:13:10;;;;;;;39.00;9.60;;;;;;;6.32;100.00;98527.69;5049578;28;20116;-87
2023/03/10 03:15:36;;;;;;;32.25;9.27;;;;;;;6.24;100.00;98523.78;5049756;28;20053;-88
2023/03/10 03:18:02;;;;;;;33.23;8.50;;;;;;;6.11;100.00;98522.59;5050197;28;20028;-88
2023/03/10 03:20:29;;;;;;;27.88;8.93;;;;;;;6.00;100.00;98502.53;5049328;28;20036;-87
2023/03/10 03:22:55;;;;;;;28.77;8.18;;;;;;;6.19;100.00;98518.53;5047824;28;20029;-88
2023/03/10 03:25:22;;;;;;;25.83;7.97;;;;;;;6.32;100.00;98519.69;5050554;28;20029;-88
2023/03/10 03:27:48;;;;;;;31.23;8.13;;;;;;;6.38;100.00;98521.22;5032240;28;20033;-87
2023/03/10 03:30:20;;;;;;;31.60;8.17;;;;;;;6.39;100.00;98512.13;5032305;28;20025;-88
2023/03/10 03:32:45;;;;;;;33.57;8.03;;;;;;;6.50;100.00;98515.47;5049794;28;20313;-87
2023/03/10 03:35:17;;;;;;;28.58;7.38;;;;;;;6.54;100.00;98513.81;5050238;28;20029;-88
2023/03/10 03:37:43;;;;;;;33.03;7.47;;;;;;;6.55;100.00;98511.97;5050461;28;20032;-88
2023/03/10 03:40:12;;;;;;;28.90;7.22;;;;;;;6.57;100.00;98512.47;5046856;28;20256;-87
2023/03/10 03:42:49;;;;;;;28.15;7.25;;;;;;;6.65;100.00;98519.78;5048989;28;20032;-88
2023/03/10 03:45:17;;;;;;;31.17;6.80;;;;;;;6.75;100.00;98513.53;5049302;28;20120;-88
2023/03/10 03:47:43;;;;;;;35.03;6.95;;;;;;;6.79;100.00;98514.53;5050613;28;20136;-87
2023/03/10 03:50:11;;;;;;;27.17;6.13;;;;;;;6.78;100.00;98516.38;5049776;28;20111;-87
2023/03/10 03:52:37;;;;;;;24.40;6.43;;;;;;;6.82;100.00;98512.06;5049615;28;20188;-87
2023/03/10 03:55:03;;;;;;;24.00;7.15;;;;;;;6.80;100.00;98510.78;5049108;28;20448;-87
2023/03/10 03:57:28;;;;;;;32.38;6.95;;;;;;;6.88;100.00;98517.34;5054753;28;20040;-88
2023/03/10 03:59:54;;;;;;;19.63;5.90;;;;;;;6.85;100.00;98518.69;5054002;28;20029;-87
2023/03/10 04:02:19;;;;;;;29.80;6.53;;;;;;;6.85;100.00;98508.03;5054279;28;20392;-88
2023/03/10 04:04:45;;;;;;;25.63;6.70;;;;;;;6.94;100.00;98511.63;5053952;28;20021;-87
2023/03/10 04:07:10;;;;;;;26.52;6.05;;;;;;;6.97;100.00;98504.94;5055059;28;20025;-88
2023/03/10 04:09:40;;;;;;;25.67;6.37;;;;;;;6.99;100.00;98510.75;5053854;28;20029;-88
2023/03/10 04:12:07;;;;;;;23.25;5.28;;;;;;;7.05;100.00;98501.63;5051453;28;20025;-87
2023/03/10 04:14:33;;;;;;;30.63;5.88;;;;;;;7.02;100.00;98498.75;5053994;28;20029;-87
2023/03/10 04:16:58;;;;;;;22.10;4.73;;;;;;;6.94;100.00;98492.19;5054146;28;20162;-88
2023/03/10 04:19:23;;;;;;;22.93;4.57;;;;;;;7.01;100.00;98503.28;5054166;28;20028;-88
2023/03/10 04:21:49;;;;;;;25.50;4.83;;;;;;;7.01;100.00;98503.28;5036053;28;20036;-88
2023/03/10 04:24:14;;;;;;;19.92;5.10;;;;;;;6.96;100.00;98493.50;5053124;28;20029;-87
2023/03/10 04:26:39;;;;;;;19.50;4.53;;;;;;;7.04;100.00;98500.03;5052631;28;20033;-88
2023/03/10 04:29:11;;;;;;;22.07;4.67;;;;;;;6.92;100.00;98486.38;5051591;28;20040;-88
2023/03/10 04:34:22;;;;;;;28.53;5.17;;;;;;;6.95;100.00;98493.78;5036880;28;20037;-88
2023/03/10 04:36:53;;;;;;;36.00;5.73;;;;;;;6.87;100.00;98492.56;5046907;28;21067;-88
2023/03/10 04:39:18;;;;;;;39.70;5.57;;;;;;;6.77;100.00;98480.19;5036674;28;20244;-88
2023/03/10 04:41:44;;;;;;;30.53;5.80;;;;;;;6.72;100.00;98468.84;5053732;28;20685;-88
2023/03/10 04:44:17;;;;;;;37.47;6.13;;;;;;;6.63;100.00;98471.38;5050950;28;20025;-88
2023/03/10 04:46:52;;;;;;;28.10;4.95;;;;;;;6.55;100.00;98461.41;5053594;28;20391;-88
2023/03/10 04:49:23;;;;;;;26.50;5.15;;;;;;;6.42;100.00;98457.59;5055058;28;20454;-88
2023/03/10 04:51:58;;;;;;;35.30;5.38;;;;;;;6.36;100.00;98451.56;5036231;28;20186;-87
2023/03/10 04:54:23;;;;;;;32.15;5.00;;;;;;;6.24;100.00;98457.28;5052569;28;20032;-88
2023/03/10 04:56:48;;;;;;;33.87;4.70;;;;;;;6.18;100.00;98453.13;5053520;28;20037;-87
2023/03/10 04:59:14;;;;;;;39.10;5.13;;;;;;;6.21;100.00;98477.25;5052390;28;20039;-87
2023/03/10 05:01:39;;;;;;;26.33;4.80;;;;;;;6.14;100.00;98458.22;5057762;28;20121;-88
2023/03/10 05:04:05;;;;;;;31.30;5.10;;;;;;;6.22;100.00;98473.53;5055823;28;20134;-87
2023/03/10 05:06:30;;;;;;;35.67;5.10;;;;;;;6.31;100.00;98472.91;5052044;28;20476;-87
2023/03/10 05:08:56;;;;;;;32.33;4.83;;;;;;;6.37;100.00;98471.75;5051286;28;20078;-88
2023/03/10 05:11:22;;;;;;;30.25;4.63;;;;;;;6.42;100.00;98462.91;5053426;28;20070;-88
2023/03/10 05:13:48;;;;;;;21.37;4.47;;;;;;;6.41;100.00;98458.66;5034501;28;20044;-88
2023/03/10 05:16:17;;;;;;;30.43;4.90;;;;;;;6.54;100.00;98467.78;5053368;28;20855;-88
2023/03/10 05:18:43;;;;;;;25.90;4.80;;;;;;;6.42;100.00;98458.38;5052034;28;20108;-87
2023/03/10 05:21:09;;;;;;;23.95;4.50;;;;;;;6.46;100.00;98470.03;5052677;28;20155;-87
2023/03/10 05:23:37;;;;;;;27.60;4.60;;;;;;;6.33;100.00;98460.88;5043030;28;20029;-87
2023/03/10 05:26:07;;;;;;;27.67;4.57;;;;;;;6.36;100.00;98465.63;5032623;28;20029;-87
2023/03/10 05:28:32;;;;;;;27.95;4.78;;;;;;;6.36;100.00;98464.84;5046839;28;20037;-88
2023/03/10 05:30:58;;;;;;;30.73;4.93;;;;;;;6.43;100.00;98467.94;5050413;28;20078;-87
2023/03/10 05:33:23;;;;;;;29.75;5.13;;;;;;;6.42;100.00;98458.38;5051425;28;20021;-86
2023/03/10 05:35:49;;;;;;;35.33;5.27;;;;;;;6.43;100.00;98465.25;5037391;28;20040;-87
2023/03/10 05:38:15;;;;;;;39.10;4.93;;;;;;;6.48;100.00;98467.88;5063282;28;20108;-88
2023/03/10 05:40:40;;;;;;;29.98;4.93;;;;;;;6.49;100.00;98473.97;5050924;28;20031;-87
2023/03/10 05:43:06;;;;;;;35.80;5.27;;;;;;;6.51;100.00;98474.47;5052823;28;20029;-87
2023/03/10 05:45:31;;;;;;;43.40;5.38;;;;;;;6.53;100.00;98474.19;5051946;28;20029;-87
2023/03/10 05:47:57;;;;;;;40.87;5.37;;;;;;;6.58;100.00;98476.75;5045514;28;20499;-87
2023/03/10 05:50:22;;;;;;;39.00;4.90;;;;;;;6.54;100.00;98475.78;5036364;28;20510;-88
2023/03/10 05:52:47;;;;;;;23.17;4.43;;;;;;;6.58;100.00;98480.22;5035436;28;20288;-87
2023/03/10 05:55:15;;;;;;;31.77;4.70;;;;;;;6.58;100.00;98471.44;5050784;28;20025;-88
2023/03/10 05:57:41;;;;;;;31.00;4.95;;;;;;;6.63;100.00;98471.38;5052163;28;20056;-87
2023/03/10 06:00:09;;;;;;;28.70;5.10;;;;;;;6.64;100.00;98476.44;5033251;28;20047;-87
2023/03/10 06:02:35;;;;;;;31.17;4.88;;;;;;;6.71;100.00;98476.06;5052037;28;20056;-92
2023/03/10 06:05:01;;;;;;;32.75;4.68;;;;;;;6.74;100.00;98480.81;5051816;28;20361;-87
2023/03/10 06:07:26;;;;;;;31.85;5.57;;;;;;;6.80;100.00;98486.84;5051579;28;20024;-86
2023/03/10 06:09:53;;;;;;;25.23;4.80;;;;;;;6.76;100.00;98478.63;5049456;28;21813;-87
2023/03/10 06:12:19;;;;;;;28.05;5.75;;;;;;;6.81;100.00;98475.88;5051126;28;20364;-87
2023/03/10 06:14:45;;;;;;;32.07;5.40;;;;;;;6.81;100.00;98475.88;5075823;22;20051;-87
2023/03/10 06:17:10;;;;;;;31.13;5.97;;;;;;;6.87;100.00;98483.81;5050511;28;20466;-85
2023/03/10 06:19:35;;;;;;;28.63;5.47;;;;;;;6.84;100.00;98487.03;5051103;28;20029;-86
2023/03/10 06:22:00;;;;;;;47.73;5.57;;;;;;;6.85;100.00;98485.97;5064127;28;20100;-87
2023/03/10 06:24:27;;;;;;;27.73;5.43;;;;;;;6.87;100.00;98491.78;5047140;28;20029;-85
2023/03/10 06:26:53;;;;;;;34.75;5.65;;;;;;;6.88;100.00;98491.47;5071217;28;20029;-85
2023/03/10 06:29:18;;;;;;;33.00;5.47;;;;;;;6.88;100.00;98494.16;5066487;28;20115;-86
2023/03/10 06:31:43;;;;;;;40.00;5.70;;;;;;;6.92;100.00;98495.16;5070245;28;20033;-88
2023/03/10 06:34:09;;;;;;;31.47;4.97;;;;;;;6.95;100.00;98502.56;5071332;28;20530;-87
2023/03/10 06:36:36;;;;;;;28.53;5.03;;;;;;;6.94;100.00;98493.00;5071339;28;20025;-87
2023/03/10 06:39:02;;;;;;;32.58;5.30;;;;;;;6.95;100.00;98496.44;5071014;28;20028;-87
2023/03/10 06:41:27;;;;;;;27.83;5.35;;;;;;;6.98;100.00;98511.84;5070689;28;20496;-88
2023/03/10 06:43:53;;;;;;;34.13;5.57;;;;;;;6.97;100.00;98499.59;5071095;28;20036;-87
2023/03/10 06:46:18;;;;;;;32.17;5.20;;;;;;;7.01;100.00;98505.94;5066204;28;20116;-88
2023/03/10 06:48:43;;;;;;;30.23;5.17;;;;;;;7.07;100.00;98514.63;5069619;28;20070;-88
2023/03/10 06:51:13;;;;;;;37.33;5.90;;;;;;;7.08;100.00;98508.22;5070608;28;20021;-88
2023/03/10 06:53:39;;;;;;;33.95;6.60;;;;;;;6.99;100.00;98496.66;5053155;28;20058;-88
2023/03/10 06:56:07;;;;;;;33.10;5.70;;;;;;;7.06;100.00;98507.72;5071342;28;20113;-89
2023/03/10 06:58:34;;;;;;;31.67;6.25;;;;;;;7.04;100.00;98499.22;5070343;28;20032;-88
2023/03/10 07:01:00;;;;;;;36.17;5.70;;;;;;;7.06;100.00;98507.72;5069268;28;20089;-86
2023/03/10 07:03:27;;;;;;;21.75;5.38;;;;;;;7.07;100.00;98511.97;5070981;28;20475;-88
2023/03/10 07:05:57;;;;;;;30.65;5.47;;;;;;;7.09;100.00;98507.94;5071081;28;20052;-87
2023/03/10 07:08:23;;;;;;;35.87;5.60;;;;;;;7.16;100.00;98507.56;5068407;28;20032;-88
2023/03/10 07:10:48;;;;;;;41.87;5.40;;;;;;;7.21;100.00;98512.00;5052975;28;20380;-88
2023/03/10 07:13:16;;;;;;;25.93;5.00;;;;;;;7.30;100.00;98507.63;5052924;28;20124;-88
2023/03/10 07:15:42;;;;;;;33.28;5.85;;;;;;;7.39;100.00;98510.41;5069971;28;20466;-88
2023/03/10 07:18:07;;;;;;;35.88;6.07;;;;;;;7.55;100.00;98516.22;5063864;28;20025;-87
2023/03/10 07:20:33;;;;;;;34.07;6.13;;;;;;;7.72;100.00;98510.34;5068527;28;20024;-87
2023/03/10 07:22:59;;;;;;;25.60;6.07;;;;;;;7.83;100.00;98519.72;5070000;28;20029;-88
2023/03/10 07:25:24;;;;;;;36.77;5.87;;;;;;;7.90;100.00;98519.31;5067278;28;20029;-88
2023/03/10 07:27:50;;;;;;;36.53;5.27;;;;;;;7.97;100.00;98522.38;5069745;28;20032;-88
2023/03/10 07:30:15;;;;;;;35.40;5.15;;;;;;;7.97;100.00;98519.72;5052522;28;20071;-88
2023/03/10 07:32:41;;;;;;;24.73;4.03;;;;;;;7.98;100.00;98525.81;5074385;28;20059;-87
2023/03/10 07:35:07;;;;;;;32.85;5.00;;;;;;;8.10;100.00;98525.34;5053175;28;20150;-88
2023/03/10 07:37:35;;;;;;;31.07;4.70;;;;;;;8.22;100.00;98520.28;5067997;28;20032;-87
2023/03/10 07:40:00;;;;;;;33.40;4.35;;;;;;;8.41;100.00;98530.03;5069887;28;20054;-87
2023/03/10 07:42:26;;;;;;;25.30;4.67;;;;;;;8.46;100.00;98537.94;5064720;28;20048;-87
2023/03/10 07:44:51;;;;;;;24.53;3.60;;;;;;;8.48;100.00;98533.13;5070468;28;20021;-87
2023/03/10 07:47:16;;;;;;;35.42;3.88;;;;;;;8.76;100.00;98528.50;5069380;28;20528;-87
2023/03/10 07:49:45;;;;;;;35.63;4.17;;;;;;;9.04;100.00;98530.28;5069280;28;20025;-88
2023/03/10 07:52:12;;;;;;;25.23;4.03;;;;;;;9.14;100.00;98532.69;5070769;28;20044;-87
2023/03/10 07:54:37;;;;;;;25.80;3.33;;;;;;;9.28;100.00;98526.53;5050430;28;20299;-89
2023/03/10 07:57:03;;;;;;;28.13;4.03;;;;;;;9.33;100.00;98535.19;5064575;28;20074;-87
2023/03/10 07:59:28;;;;;;;22.47;3.93;;;;;;;9.28;100.00;98540.66;5069817;28;20283;-88
2023/03/10 08:01:53;;;;;;;25.30;3.10;;;;;;;9.26;100.00;98523.38;5069965;28;20498;-87
2023/03/10 08:04:18;;;;;;;26.93;3.23;;;;;;;9.27;100.00;98531.06;5064152;28;20029;-88
2023/03/10 08:06:46;;;;;;;20.47;3.00;;;;;;;9.05;100.00;98534.53;5053983;28;20036;-87
2023/03/10 08:09:11;;;;;;;20.42;2.95;;;;;;;8.91;100.00;98535.38;5068420;28;20036;-87
2023/03/10 08:11:37;;;;;;;23.83;3.33;;;;;;;8.82;100.00;98541.75;5052217;28;20027;-87
2023/03/10 08:14:05;;;;;;;20.70;3.10;;;;;;;8.59;100.00;98509.69;5044257;28;20671;-89
2023/03/10 08:16:30;;;;;;;28.73;2.85;;;;;;;8.75;100.00;98523.47;5052781;28;20079;-90
2023/03/10 08:18:55;;;;;;;22.17;3.10;;;;;;;8.83;100.00;98528.09;5052620;28;20062;-91
2023/03/10 08:21:21;;;;;;;21.43;3.30;;;;;;;8.97;100.00;98529.91;5069797;28;20119;-91
2023/03/10 08:23:49;;;;;;;19.95;3.20;;;;;;;9.28;100.00;98537.22;5070184;28;20040;-92
2023/03/10 08:26:16;;;;;;;19.17;3.20;;;;;;;9.39;100.00;98543.88;5070802;28;20020;-91
2023/03/10 08:28:42;;;;;;;21.20;3.70;;;;;;;9.68;100.00;98539.94;5069604;28;20385;-91
2023/03/10 08:31:14;;;;;;;25.33;3.85;;;;;;;9.90;100.00;98543.63;5051581;28;20028;-91
2023/03/10 08:33:40;;;;;;;24.67;3.83;;;;;;;10.06;100.00;98544.78;5070856;28;20035;-91
2023/03/10 08:41:20;;;;;;;19.33;2.70;;;;;;;9.41;100.00;98549.72;6083963;22;20648;-91
2023/03/10 08:43:47;;;;;;;18.17;2.53;;;;;;;9.19;100.00;98542.50;5074764;28;20471;-90
2023/03/10 08:46:12;;;;;;;14.50;2.40;;;;;;;9.20;100.00;98544.84;5057062;28;20068;-90
2023/03/10 08:48:38;;;;;;;11.07;2.33;;;;;;;9.28;100.00;98542.56;5057227;28;20075;-90
2023/03/10 08:51:05;;;;;;;13.60;2.75;;;;;;;9.30;100.00;98540.38;5074774;28;20032;-90
2023/03/10 08:53:32;;;;;;;17.30;2.85;;;;;;;9.35;100.00;98542.91;5074999;28;20075;-90
2023/03/10 08:55:58;;;;;;;17.50;2.72;;;;;;;9.52;100.00;98543.00;5074867;28;20059;-91
2023/03/10 08:58:23;;;;;;;14.30;2.07;;;;;;;9.72;100.00;98546.25;5076452;28;20447;-90
2023/03/10 09:00:49;;;;;;;17.83;2.70;;;;;;;9.77;100.00;98532.75;5079450;28;20099;-90
2023/03/10 09:03:14;;;;;;;14.77;2.10;;;;;;;9.98;100.00;98546.34;5075425;28;20056;-90
2023/03/10 09:05:40;;;;;;;16.70;2.10;;;;;;;10.08;100.00;98544.50;5057214;28;20025;-90
2023/03/10 09:08:06;;;;;;;12.20;2.30;;;;;;;9.94;100.00;98547.28;5075565;28;20028;-90
2023/03/10 09:10:33;;;;;;;6.93;1.67;;;;;;;9.80;100.00;98552.72;5083456;28;20033;-91
2023/03/10 09:12:59;;;;;;;13.20;1.98;;;;;;;9.64;100.00;98533.63;5145256;22;20040;-91
2023/03/10 09:15:24;;;;;;;16.10;2.20;;;;;;;9.54;100.00;98530.13;5028090;28;20042;-89
2023/03/10 09:18:02;;;;;;;10.13;1.53;;;;;;;9.50;100.00;98528.38;5029950;28;20057;-91
2023/03/10 09:20:27;;;;;;;16.13;2.05;;;;;;;9.46;100.00;98516.72;5028861;28;20034;-88
2023/03/10 09:25:52;;;;;;;16.42;1.92;;;;;;;9.67;100.00;98523.09;5024731;28;20048;-89
2023/03/10 09:28:18;;;;;;;18.80;2.30;;;;;;;9.88;100.00;98543.16;5151060;22;20035;-87
2023/03/10 09:30:43;;;;;;;11.40;1.83;;;;;;;9.83;100.00;98544.91;5035387;28;20295;-88
2023/03/10 09:33:15;;;;;;;14.97;1.87;;;;;;;9.78;100.00;98538.88;5016387;28;20392;-89
2023/03/10 09:35:40;;;;;;;9.85;2.00;;;;;;;9.68;100.00;98543.41;5036683;28;20101;-90
2023/03/10 09:38:07;;;;;;;11.87;1.90;;;;;;;9.63;100.00;98542.75;5022477;28;20726;-90
2023/03/10 09:40:32;;;;;;;13.68;2.28;;;;;;;9.54;100.00;98535.47;5013430;28;20867;-90
2023/03/10 09:43:06;;;;;;;10.47;1.70;;;;;;;9.37;100.00;98533.50;4995444;28;20033;-89
2023/03/10 09:45:48;;;;;;;9.73;1.88;;;;;;;9.38;100.00;98536.94;5017158;28;20021;-88
2023/03/10 09:48:16;;;;;;;11.43;2.28;;;;;;;9.45;100.00;98536.50;5025721;28;20029;-90
2023/03/10 10:01:04;;;;;;;14.20;2.22;;;;;;;8.97;100.00;98554.75;5260475;22;20064;-90
2023/03/10 10:03:34;;;;;;;14.20;2.10;;;;;;;9.01;100.00;98560.28;5031898;28;20549;-91
2023/03/10 10:06:03;;;;;;;17.08;2.30;;;;;;;8.95;100.00;98562.28;5026686;28;20094;-90
2023/03/10 10:08:59;;;;;;;16.30;2.57;;;;;;;9.00;100.00;98569.38;5018302;28;20029;-93
2023/03/10 10:11:25;;;;;;;15.23;1.90;;;;;;;9.11;100.00;98570.75;4999806;28;20303;-91
2023/03/10 10:14:08;;;;;;;13.25;2.42;;;;;;;9.12;100.00;98556.28;5072265;22;20037;-89
2023/03/10 10:16:51;;;;;;;12.85;2.35;;;;;;;9.25;100.00;98565.31;5048332;28;20044;-89
2023/03/10 10:19:57;;;;;;;;;;;;;;;;;;;;;
2023/03/10 10:22:44;;;;;;;9.83;2.20;;;;;;;8.98;100.00;98551.00;5046796;28;20033;-92
2023/03/10 10:25:15;;;;;;;16.48;2.63;;;;;;;8.98;100.00;98569.69;5027642;28;20028;-90
2023/03/10 10:27:41;;;;;;;9.75;2.42;;;;;;;8.76;100.00;98583.81;5030119;28;20190;-87
2023/03/10 10:30:27;;;;;;;15.32;3.08;;;;;;;8.60;100.00;98586.78;5029112;28;20056;-90
2023/03/10 10:33:10;;;;;;;16.20;2.70;;;;;;;8.48;100.00;98581.97;5012221;28;20406;-89
2023/03/10 10:35:38;;;;;;;9.80;2.20;;;;;;;8.46;100.00;98584.13;5029718;28;20041;-89
2023/03/10 10:38:17;;;;;;;12.27;2.90;;;;;;;8.47;100.00;98577.69;5030511;28;20287;-89
2023/03/10 10:40:55;;;;;;;18.60;2.50;;;;;;;8.50;100.00;98581.66;5013712;28;20025;-91
2023/03/10 10:43:21;;;;;;;14.73;2.25;;;;;;;8.59;100.00;98577.19;5027594;28;20029;-91
2023/03/10 10:45:55;;;;;;;17.25;2.50;;;;;;;8.76;100.00;98567.78;5013565;28;20107;-90
2023/03/10 10:48:42;;;;;;;14.18;2.60;;;;;;;8.92;100.00;98569.03;5031758;28;20124;-93
2023/03/10 10:54:57;;;;;;;14.17;2.37;;;;;;;9.30;100.00;98559.84;5057307;22;20081;-92
2023/03/10 10:57:32;;;;;;;10.53;2.20;;;;;;;9.06;100.00;98552.94;5034236;28;20325;-92
2023/03/10 11:00:28;;;;;;;11.95;2.75;;;;;;;9.10;100.00;98553.13;5033130;28;20030;-95
2023/03/10 11:02:54;;;;;;;11.95;2.25;;;;;;;9.05;100.00;98551.34;5003058;28;20026;-94
2023/03/10 11:05:32;;;;;;;10.20;2.13;;;;;;;9.02;100.00;98545.81;5013174;28;20037;-96
2023/03/10 11:08:18;;;;;;;16.70;2.38;;;;;;;9.04;100.00;98549.75;5028127;28;20033;-92
2023/03/10 11:10:55;;;;;;;14.32;2.08;;;;;;;9.03;100.00;98550.06;5030113;28;20033;-91
2023/03/10 11:13:30;;;;;;;12.98;1.95;;;;;;;8.90;100.00;98512.44;5102536;22;20116;-91
2023/03/10 11:16:05;;;;;;;13.23;2.25;;;;;;;8.85;100.00;98535.81;5056319;28;20100;-93
2023/03/10 11:18:37;;;;;;;11.47;2.10;;;;;;;8.80;100.00;98539.38;5053497;28;20076;-92
2023/03/10 11:21:07;;;;;;;14.23;2.00;;;;;;;8.96;100.00;98541.69;5052962;28;20375;-91
2023/03/10 11:24:14;;;;;;;12.27;1.90;;;;;;;9.02;100.00;98537.81;5060673;28;20029;-92
2023/03/10 11:26:51;;;;;;;9.02;2.60;;;;;;;8.91;100.00;98531.91;5047851;28;20041;-91
2023/03/10 11:29:22;;;;;;;12.82;2.20;;;;;;;8.85;100.00;98536.59;5061811;28;20059;-92
2023/03/10 11:32:09;;;;;;;13.27;2.00;;;;;;;8.73;100.00;98534.44;5065403;28;20089;-91
2023/03/10 11:34:44;;;;;;;10.57;2.80;;;;;;;8.64;100.00;98528.25;5055203;28;20037;-93
2023/03/10 11:37:34;;;;;;;11.77;2.17;;;;;;;8.71;100.00;98520.59;5074933;28;20029;-90
2023/03/10 11:40:14;;;;;;;7.95;2.67;;;;;;;8.75;100.00;98518.16;5061622;28;20080;-95
2023/03/10 11:45:38;;;;;;;6.55;2.08;;;;;;;8.78;100.00;98515.66;6146274;22;20024;-96
2023/03/10 11:48:47;;;;;;;7.68;2.20;;;;;;;8.84;100.00;98512.88;5022789;28;20045;-94
2023/03/10 11:51:38;;;;;;;10.03;2.33;;;;;;;8.74;100.00;98489.88;5017415;28;20026;-96
2023/03/10 11:54:53;;;;;;;6.10;1.80;;;;;;;8.83;100.00;98512.06;4990762;28;20284;-95
2023/03/10 11:57:22;;;;;;;8.85;2.47;;;;;;;8.99;100.00;98503.69;4995027;28;20037;-94
2023/03/10 12:21:30;;;;;;;7.00;3.88;;;;;;;9.62;100.00;98479.69;5612935;22;20038;-96
2023/03/10 12:27:21;;;;;;;5.63;3.47;;;;;;;9.76;100.00;98477.69;5311947;22;20033;-96
2023/03/10 12:29:50;;;;;;;6.20;3.23;;;;;;;9.81;100.00;98480.22;5201080;23;20306;-95